Time;durP1;ratioP1;P1;durP2;ratioP2;P2;SDS_P1;SDS_P2;PMS_P1;PMS_P2;Temp;Humidity;BMP_temperature;BMP_pressure;BME280_temperature;BME280_humidity;BME280_pressure;Samples;Min_cycle;Max_cycle;Signal;HPM_P1;HPM_P2
2023/05/10 00:00:08;;;;;;;0.20;0.20;;;13.70;99.90;;;;;;5055681;28;20108;-73
2023/05/10 00:02:34;;;;;;;0.20;0.20;;;13.80;99.90;;;;;;5055716;28;20048;-73
2023/05/10 00:05:00;;;;;;;0.20;0.20;;;13.70;99.90;;;;;;5055678;28;20055;-73
2023/05/10 00:07:26;;;;;;;0.20;0.20;;;13.80;99.90;;;;;;5055563;28;20501;-73
2023/05/10 00:09:51;;;;;;;0.10;0.10;;;13.90;99.90;;;;;;5054963;28;20037;-72
2023/05/10 00:12:17;;;;;;;0.20;0.20;;;13.90;99.90;;;;;;5037575;28;20024;-73
2023/05/10 00:14:42;;;;;;;0.13;0.13;;;13.80;99.90;;;;;;5055892;28;20028;-73
2023/05/10 00:17:08;;;;;;;0.10;0.10;;;13.90;99.90;;;;;;5055364;28;20029;-73
2023/05/10 00:19:33;;;;;;;0.17;0.17;;;13.90;99.90;;;;;;5055332;28;20021;-73
2023/05/10 00:21:59;;;;;;;0.13;0.13;;;13.90;99.90;;;;;;5054786;28;20474;-73
2023/05/10 00:24:24;;;;;;;0.20;0.20;;;13.90;99.90;;;;;;5055592;28;20037;-73
2023/05/10 00:26:50;;;;;;;0.10;0.10;;;13.80;99.90;;;;;;5037324;28;20028;-72
2023/05/10 00:29:15;;;;;;;0.10;0.10;;;13.80;99.90;;;;;;5055224;28;20528;-73
2023/05/10 00:31:41;;;;;;;0.30;0.30;;;13.80;99.90;;;;;;5055148;28;20104;-73
2023/05/10 00:34:06;;;;;;;0.20;0.20;;;13.80;99.90;;;;;;5054530;28;20021;-73
2023/05/10 00:36:32;;;;;;;0.20;0.20;;;13.90;99.90;;;;;;5037124;28;20029;-73
2023/05/10 00:38:58;;;;;;;0.20;0.20;;;13.80;99.90;;;;;;5054909;28;20029;-73
2023/05/10 00:41:24;;;;;;;0.10;0.10;;;13.80;99.90;;;;;;5054949;28;20028;-73
2023/05/10 00:43:49;;;;;;;0.20;0.20;;;13.80;99.90;;;;;;5036570;28;20108;-72
2023/05/10 00:46:15;;;;;;;0.10;0.10;;;13.80;99.90;;;;;;5041793;28;20394;-72
2023/05/10 00:48:42;;;;;;;0.20;0.20;;;13.80;99.90;;;;;;5045585;28;20032;-73
2023/05/10 00:51:08;;;;;;;0.15;0.15;;;13.80;99.90;;;;;;5054598;28;20114;-73
2023/05/10 00:53:34;;;;;;;0.20;0.20;;;13.70;99.90;;;;;;5054347;28;20063;-73
2023/05/10 00:56:01;;;;;;;0.20;0.20;;;13.70;99.90;;;;;;5053786;28;20021;-72
2023/05/10 00:58:28;;;;;;;0.20;0.20;;;13.70;99.90;;;;;;5053305;28;20025;-72
2023/05/10 01:00:55;;;;;;;0.10;0.10;;;13.60;99.90;;;;;;5032802;28;20029;-73
2023/05/10 01:03:21;;;;;;;0.20;0.20;;;13.70;99.90;;;;;;5040229;28;20029;-73
2023/05/10 01:05:46;;;;;;;0.20;0.20;;;13.70;99.90;;;;;;5054083;28;20041;-73
2023/05/10 01:08:12;;;;;;;0.20;0.20;;;13.60;99.90;;;;;;5053746;28;20463;-73
2023/05/10 01:10:37;;;;;;;0.20;0.20;;;13.60;99.90;;;;;;5054402;28;20045;-73
2023/05/10 01:13:03;;;;;;;0.20;0.20;;;13.60;99.90;;;;;;5054315;28;20021;-73
2023/05/10 01:15:30;;;;;;;0.25;0.25;;;13.60;99.90;;;;;;5054185;28;20056;-73
2023/05/10 01:17:56;;;;;;;0.10;0.10;;;13.50;99.90;;;;;;5053754;28;20123;-73
2023/05/10 01:20:22;;;;;;;0.20;0.20;;;13.50;99.90;;;;;;5054139;28;20470;-73
2023/05/10 01:23:09;;;;;;;0.20;0.20;;;13.40;99.90;;;;;;5036205;28;20067;-73
2023/05/10 01:25:50;;;;;;;0.17;0.17;;;13.40;99.90;;;;;;5054115;28;20028;-73
2023/05/10 01:28:30;;;;;;;0.10;0.10;;;13.40;99.90;;;;;;5053646;28;20087;-73
2023/05/10 01:31:42;;;;;;;0.30;0.30;;;13.30;99.90;;;;;;5054021;28;20124;-73
2023/05/10 01:34:15;;;;;;;0.17;0.17;;;13.30;99.90;;;;;;5003607;28;20376;-73
2023/05/10 01:36:47;;;;;;;0.20;0.20;;;13.20;99.90;;;;;;5053500;28;20029;-73
2023/05/10 01:39:32;;;;;;;0.20;0.20;;;13.20;99.90;;;;;;5053870;28;20104;-73
2023/05/10 01:42:09;;;;;;;0.20;0.20;;;13.10;99.90;;;;;;5053986;28;20487;-73
2023/05/10 01:44:41;;;;;;;0.10;0.10;;;13.10;99.90;;;;;;5054079;28;20486;-73
2023/05/10 01:47:14;;;;;;;0.15;0.15;;;13.00;99.90;;;;;;5053291;28;20025;-73
2023/05/10 01:49:48;;;;;;;0.20;0.20;;;13.00;99.90;;;;;;5053517;28;20083;-73
2023/05/10 01:52:19;;;;;;;0.30;0.30;;;12.90;99.90;;;;;;5053679;28;20094;-73
2023/05/10 01:54:55;;;;;;;0.22;0.22;;;12.90;99.90;;;;;;5035613;28;20048;-73
2023/05/10 01:57:27;;;;;;;0.10;0.10;;;12.80;99.90;;;;;;5053873;28;20096;-73
2023/05/10 01:59:54;;;;;;;0.20;0.20;;;12.70;99.90;;;;;;5052942;28;20063;-73
2023/05/10 02:02:22;;;;;;;0.20;0.20;;;12.60;99.90;;;;;;5053975;28;20047;-73
2023/05/10 02:04:50;;;;;;;0.20;0.20;;;12.50;99.90;;;;;;5053635;28;20104;-73
2023/05/10 02:07:16;;;;;;;0.20;0.20;;;12.40;99.90;;;;;;5035471;28;20390;-73
2023/05/10 02:09:47;;;;;;;0.20;0.20;;;12.30;99.90;;;;;;5053248;28;20036;-73
2023/05/10 02:12:13;;;;;;;0.22;0.22;;;12.20;99.90;;;;;;5052873;28;20017;-73
2023/05/10 02:14:40;;;;;;;0.20;0.20;;;12.10;99.90;;;;;;5053293;28;20028;-73
2023/05/10 02:17:08;;;;;;;0.20;0.20;;;12.10;99.90;;;;;;5052644;28;20025;-73
2023/05/10 02:19:35;;;;;;;0.20;0.20;;;12.20;99.90;;;;;;5053144;28;20028;-73
2023/05/10 02:22:02;;;;;;;0.15;0.15;;;12.20;99.90;;;;;;5053116;28;20029;-73
2023/05/10 02:24:29;;;;;;;0.20;0.20;;;12.30;99.90;;;;;;5052749;28;20104;-72
2023/05/10 02:26:55;;;;;;;0.13;0.13;;;12.30;99.90;;;;;;5053034;28;20025;-73
2023/05/10 02:29:23;;;;;;;0.15;0.15;;;12.40;99.90;;;;;;5035180;28;20028;-73
2023/05/10 02:31:52;;;;;;;0.10;0.10;;;12.40;99.90;;;;;;5053119;28;20479;-73
2023/05/10 02:34:19;;;;;;;0.20;0.20;;;12.50;99.90;;;;;;5050335;28;20040;-72
2023/05/10 02:36:44;;;;;;;0.20;0.20;;;12.60;99.90;;;;;;5033299;28;20029;-72
2023/05/10 02:39:13;;;;;;;0.20;0.20;;;12.50;99.90;;;;;;5045152;28;20021;-72
2023/05/10 02:41:40;;;;;;;0.20;0.20;;;12.60;99.90;;;;;;5045782;28;20027;-72
2023/05/10 02:44:07;;;;;;;0.20;0.20;;;12.60;99.90;;;;;;5032616;28;20072;-72
2023/05/10 02:46:33;;;;;;;0.20;0.20;;;12.70;99.90;;;;;;5032940;28;20491;-72
2023/05/10 02:49:00;;;;;;;0.20;0.20;;;12.70;99.90;;;;;;5015007;28;20041;-73
2023/05/10 02:51:31;;;;;;;0.20;0.20;;;12.70;99.90;;;;;;5033232;28;20025;-73
2023/05/10 02:54:00;;;;;;;0.20;0.20;;;12.70;99.90;;;;;;5032785;28;20026;-72
2023/05/10 02:56:36;;;;;;;0.20;0.20;;;12.70;99.90;;;;;;5032837;28;20060;-72
2023/05/10 02:59:02;;;;;;;0.10;0.10;;;12.70;99.90;;;;;;5046385;28;20025;-72
2023/05/10 03:01:27;;;;;;;0.10;0.10;;;12.70;99.90;;;;;;5052669;28;20017;-72
2023/05/10 03:03:53;;;;;;;0.20;0.20;;;12.70;99.90;;;;;;5052708;28;20053;-73
2023/05/10 03:06:18;;;;;;;0.20;0.20;;;12.70;99.90;;;;;;5052578;28;20448;-72
2023/05/10 03:08:45;;;;;;;0.30;0.30;;;12.70;99.90;;;;;;5052565;28;20147;-72
2023/05/10 03:11:23;;;;;;;0.20;0.20;;;12.70;99.90;;;;;;5052371;28;20108;-72
2023/05/10 03:14:07;;;;;;;0.20;0.20;;;12.70;99.90;;;;;;5051957;28;20056;-72
2023/05/10 03:17:01;;;;;;;0.08;0.08;;;12.70;99.90;;;;;;5052610;28;20074;-73
2023/05/10 03:19:36;;;;;;;0.10;0.10;;;12.70;99.90;;;;;;5000689;28;20037;-73
2023/05/10 03:22:08;;;;;;;0.20;0.20;;;12.70;99.90;;;;;;5052669;28;20057;-72
2023/05/10 03:24:35;;;;;;;0.10;0.10;;;12.70;99.90;;;;;;5033955;28;20087;-72
2023/05/10 03:27:03;;;;;;;0.17;0.17;;;12.60;99.90;;;;;;5051781;28;20029;-72
2023/05/10 03:29:30;;;;;;;0.20;0.20;;;12.60;99.90;;;;;;5051072;28;20024;-72
2023/05/10 03:31:59;;;;;;;0.30;0.30;;;12.50;99.90;;;;;;5018581;28;20059;-73
2023/05/10 03:34:25;;;;;;;0.28;0.28;;;12.50;99.90;;;;;;5036084;28;20021;-73
2023/05/10 03:36:51;;;;;;;0.20;0.20;;;12.50;99.90;;;;;;5036343;28;20021;-73
2023/05/10 03:39:16;;;;;;;0.10;0.10;;;12.40;99.90;;;;;;5035133;28;20072;-72
2023/05/10 03:41:42;;;;;;;0.20;0.20;;;12.30;99.90;;;;;;5036052;28;20514;-72
2023/05/10 03:44:07;;;;;;;0.20;0.20;;;12.30;99.90;;;;;;5035892;28;20036;-72
2023/05/10 03:46:33;;;;;;;0.10;0.10;;;12.20;99.90;;;;;;5036020;28;20021;-72
2023/05/10 03:48:59;;;;;;;0.20;0.20;;;12.10;99.90;;;;;;5036153;28;20025;-72
2023/05/10 03:51:27;;;;;;;0.20;0.20;;;12.10;99.90;;;;;;5035859;28;20033;-72
2023/05/10 03:53:53;;;;;;;0.20;0.20;;;12.00;99.90;;;;;;5036255;28;20022;-72
2023/05/10 03:56:20;;;;;;;0.17;0.17;;;12.00;99.90;;;;;;5035804;28;20025;-73
2023/05/10 03:58:46;;;;;;;0.10;0.10;;;12.00;99.90;;;;;;5036265;28;20022;-73
2023/05/10 04:01:11;;;;;;;0.10;0.10;;;12.10;99.90;;;;;;5018054;28;20029;-72
2023/05/10 04:03:37;;;;;;;0.10;0.10;;;12.10;99.90;;;;;;5035574;28;20033;-72
2023/05/10 04:06:04;;;;;;;0.17;0.17;;;12.10;99.90;;;;;;5035660;28;20033;-73
2023/05/10 04:08:29;;;;;;;0.20;0.20;;;12.10;99.90;;;;;;5035710;28;20030;-73
2023/05/10 04:11:04;;;;;;;0.20;0.20;;;12.10;99.90;;;;;;5035759;28;20083;-72
2023/05/10 04:13:29;;;;;;;0.22;0.22;;;12.10;99.90;;;;;;5035912;28;20029;-73
2023/05/10 04:15:55;;;;;;;0.20;0.20;;;12.10;99.90;;;;;;5035342;28;20107;-72
2023/05/10 04:18:20;;;;;;;0.20;0.20;;;12.10;99.90;;;;;;5035035;28;20029;-73
2023/05/10 04:20:46;;;;;;;0.20;0.20;;;12.10;99.90;;;;;;5035640;28;20040;-73
2023/05/10 04:23:12;;;;;;;0.10;0.10;;;12.10;99.90;;;;;;5035424;28;20053;-73
2023/05/10 04:25:37;;;;;;;0.20;0.20;;;12.10;99.90;;;;;;5035480;28;20096;-73
2023/05/10 04:28:03;;;;;;;0.20;0.20;;;12.10;99.90;;;;;;5035049;28;20112;-73
2023/05/10 04:30:29;;;;;;;0.20;0.20;;;12.10;99.90;;;;;;5035169;28;20026;-72
2023/05/10 04:32:54;;;;;;;0.20;0.20;;;12.10;99.90;;;;;;5035462;28;20160;-73
2023/05/10 04:35:21;;;;;;;0.17;0.17;;;12.10;99.90;;;;;;5035038;28;20029;-73
2023/05/10 04:37:46;;;;;;;0.20;0.20;;;12.20;99.90;;;;;;5017006;28;20044;-73
2023/05/10 04:40:12;;;;;;;0.20;0.20;;;12.20;99.90;;;;;;5034727;28;20471;-73
2023/05/10 04:42:41;;;;;;;0.20;0.20;;;12.20;99.90;;;;;;5034961;28;20030;-73
2023/05/10 04:45:07;;;;;;;0.15;0.15;;;12.20;99.90;;;;;;5034725;28;20024;-72
2023/05/10 04:47:32;;;;;;;0.15;0.15;;;12.30;99.90;;;;;;5034682;28;20395;-73
2023/05/10 04:49:58;;;;;;;0.20;0.20;;;12.30;99.90;;;;;;5034836;28;20033;-73
2023/05/10 04:52:24;;;;;;;0.20;0.20;;;12.40;99.90;;;;;;5034846;28;20100;-73
2023/05/10 04:54:50;;;;;;;0.20;0.20;;;12.40;99.90;;;;;;5034721;28;20017;-73
2023/05/10 04:57:16;;;;;;;0.10;0.10;;;12.40;99.90;;;;;;5034968;28;20018;-73
2023/05/10 04:59:42;;;;;;;0.20;0.20;;;12.40;99.90;;;;;;5034661;28;20036;-72
2023/05/10 05:02:07;;;;;;;0.20;0.20;;;12.50;99.90;;;;;;5034644;28;20102;-72
2023/05/10 05:04:33;;;;;;;0.20;0.20;;;12.50;99.90;;;;;;5034638;28;20064;-72
2023/05/10 05:06:59;;;;;;;0.20;0.20;;;12.60;99.90;;;;;;5034517;28;20033;-73
2023/05/10 05:09:24;;;;;;;0.15;0.15;;;12.60;99.90;;;;;;5034479;28;20112;-73
2023/05/10 05:11:50;;;;;;;0.20;0.20;;;12.70;99.90;;;;;;5034083;28;20029;-72
2023/05/10 05:14:15;;;;;;;0.20;0.20;;;12.70;99.90;;;;;;5034703;28;20022;-72
2023/05/10 05:16:41;;;;;;;0.20;0.20;;;12.80;99.90;;;;;;5034475;28;20083;-73
2023/05/10 05:19:06;;;;;;;0.20;0.20;;;12.90;99.90;;;;;;5034239;28;20487;-72
2023/05/10 05:21:32;;;;;;;0.17;0.17;;;12.90;99.90;;;;;;5034311;28;20170;-72
2023/05/10 05:23:58;;;;;;;0.20;0.20;;;13.00;99.90;;;;;;5033708;28;20524;-72
2023/05/10 05:26:23;;;;;;;0.10;0.10;;;13.10;99.90;;;;;;5034498;28;20034;-72
2023/05/10 05:28:52;;;;;;;0.15;0.15;;;13.10;99.90;;;;;;5034128;28;20117;-72
2023/05/10 05:31:17;;;;;;;0.20;0.20;;;13.20;99.90;;;;;;5034125;28;20433;-73
2023/05/10 05:33:43;;;;;;;0.20;0.20;;;13.20;99.90;;;;;;5034024;28;20029;-72
2023/05/10 05:36:09;;;;;;;0.30;0.30;;;13.20;99.90;;;;;;5033568;28;20029;-72
2023/05/10 05:38:34;;;;;;;0.20;0.20;;;13.20;99.90;;;;;;5033856;28;20055;-72
2023/05/10 05:41:00;;;;;;;0.10;0.10;;;13.20;99.90;;;;;;5033945;28;20032;-72
2023/05/10 05:43:26;;;;;;;0.10;0.10;;;13.20;99.90;;;;;;5033999;28;20053;-72
2023/05/10 05:45:54;;;;;;;0.10;0.10;;;13.30;99.90;;;;;;5033870;28;20025;-72
2023/05/10 05:48:20;;;;;;;0.20;0.20;;;13.30;99.90;;;;;;5015950;28;20021;-72
2023/05/10 05:50:46;;;;;;;0.20;0.20;;;13.30;99.90;;;;;;5015557;28;20028;-73
2023/05/10 05:53:12;;;;;;;0.10;0.10;;;13.30;99.90;;;;;;5015138;28;20065;-73
2023/05/10 05:55:37;;;;;;;0.13;0.13;;;13.40;99.90;;;;;;5033595;28;20075;-72
2023/05/10 05:58:03;;;;;;;0.10;0.10;;;13.30;99.90;;;;;;5033623;28;20094;-73
2023/05/10 06:00:34;;;;;;;0.10;0.10;;;13.40;99.90;;;;;;5015815;28;20025;-72
2023/05/10 06:03:00;;;;;;;0.10;0.10;;;13.40;99.90;;;;;;5015230;28;20060;-72
2023/05/10 06:05:25;;;;;;;0.20;0.20;;;13.40;99.90;;;;;;5033479;28;20068;-73
2023/05/10 06:07:51;;;;;;;0.13;0.13;;;13.30;99.90;;;;;;5033771;28;20048;-72
2023/05/10 06:10:16;;;;;;;0.20;0.20;;;13.30;99.90;;;;;;5033245;28;20030;-72
2023/05/10 06:12:42;;;;;;;0.20;0.20;;;13.30;99.90;;;;;;5015687;28;20026;-72
2023/05/10 06:15:08;;;;;;;0.20;0.20;;;13.30;99.90;;;;;;5033366;28;20666;-73
2023/05/10 06:17:34;;;;;;;0.10;0.10;;;13.40;99.90;;;;;;5015755;28;20395;-72
2023/05/10 06:19:59;;;;;;;0.20;0.20;;;13.40;99.90;;;;;;5015336;28;20025;-73
2023/05/10 06:22:25;;;;;;;0.20;0.20;;;13.50;99.90;;;;;;5033585;28;20049;-73
2023/05/10 06:24:51;;;;;;;0.10;0.10;;;13.50;99.90;;;;;;5033192;28;20391;-73
2023/05/10 06:27:17;;;;;;;0.10;0.10;;;13.60;99.90;;;;;;5033183;28;20041;-73
2023/05/10 06:29:42;;;;;;;0.20;0.20;;;13.60;99.90;;;;;;5032524;28;20017;-72
2023/05/10 06:32:08;;;;;;;0.20;0.20;;;13.60;99.90;;;;;;5033125;28;20550;-74
2023/05/10 06:34:33;;;;;;;0.10;0.10;;;13.80;99.90;;;;;;5033112;28;20029;-74
2023/05/10 06:36:59;;;;;;;0.20;0.20;;;13.80;99.90;;;;;;5033163;28;20040;-74
2023/05/10 06:39:24;;;;;;;0.20;0.20;;;13.80;99.90;;;;;;5015314;28;20395;-74
2023/05/10 06:41:50;;;;;;;0.20;0.20;;;13.90;99.90;;;;;;5032560;28;20487;-74
2023/05/10 06:44:15;;;;;;;0.20;0.20;;;14.10;99.90;;;;;;5015355;28;20072;-73
2023/05/10 06:46:41;;;;;;;0.20;0.20;;;14.10;99.90;;;;;;5033787;28;20718;-74
2023/05/10 06:49:07;;;;;;;0.20;0.20;;;14.20;99.90;;;;;;5023437;28;20049;-73
2023/05/10 06:51:32;;;;;;;0.10;0.10;;;14.20;99.90;;;;;;5047976;28;20083;-73
2023/05/10 06:53:58;;;;;;;0.10;0.10;;;14.20;99.90;;;;;;5042417;28;20051;-73
2023/05/10 06:56:23;;;;;;;0.10;0.10;;;14.30;99.90;;;;;;5047850;28;20033;-72
2023/05/10 06:58:49;;;;;;;0.10;0.10;;;14.30;99.90;;;;;;5049989;28;20036;-73
2023/05/10 07:01:14;;;;;;;0.10;0.10;;;14.60;99.90;;;;;;5041061;28;20029;-73
2023/05/10 07:03:40;;;;;;;0.20;0.20;;;14.70;99.90;;;;;;5047605;28;20394;-73
2023/05/10 07:06:07;;;;;;;0.10;0.10;;;14.70;99.90;;;;;;5056611;28;20029;-73
2023/05/10 07:08:33;;;;;;;0.10;0.10;;;14.80;99.90;;;;;;5056502;28;20036;-73
2023/05/10 07:11:03;;;;;;;0.10;0.10;;;14.90;99.90;;;;;;5056577;28;20521;-73
2023/05/10 07:13:31;;;;;;;0.20;0.20;;;15.00;99.90;;;;;;5056360;28;20035;-73
2023/05/10 07:15:57;;;;;;;0.20;0.20;;;15.20;99.90;;;;;;5054221;28;20025;-73
2023/05/10 07:18:23;;;;;;;0.10;0.10;;;15.20;99.90;;;;;;5036475;28;20024;-73
2023/05/10 07:20:48;;;;;;;0.15;0.15;;;15.20;99.90;;;;;;5036552;28;20376;-73
2023/05/10 07:23:14;;;;;;;0.20;0.20;;;15.30;99.90;;;;;;5056461;28;20486;-74
2023/05/10 07:25:39;;;;;;;0.20;0.20;;;15.40;99.90;;;;;;5055981;28;20096;-73
2023/05/10 07:28:05;;;;;;;0.20;0.20;;;15.50;99.90;;;;;;5038734;28;20393;-73
2023/05/10 07:30:31;;;;;;;0.20;0.20;;;15.50;99.90;;;;;;5056264;28;20108;-73
2023/05/10 07:32:56;;;;;;;0.20;0.20;;;15.40;99.90;;;;;;5056045;28;20053;-72
2023/05/10 07:35:22;;;;;;;0.10;0.10;;;15.50;99.90;;;;;;5055989;28;20071;-72
2023/05/10 07:37:47;;;;;;;0.20;0.20;;;15.60;99.90;;;;;;5056356;28;20032;-72
2023/05/10 07:40:13;;;;;;;0.20;0.20;;;15.60;99.90;;;;;;5055623;28;20025;-72
2023/05/10 07:42:38;;;;;;;0.20;0.20;;;15.60;99.90;;;;;;5055874;28;20081;-72
2023/05/10 07:45:04;;;;;;;0.15;0.15;;;15.70;99.90;;;;;;5055882;28;20013;-72
2023/05/10 07:47:30;;;;;;;0.13;0.13;;;15.80;99.90;;;;;;5056322;28;20021;-72
2023/05/10 07:49:55;;;;;;;0.10;0.10;;;15.70;99.90;;;;;;5056072;28;20067;-72
2023/05/10 07:52:21;;;;;;;0.20;0.20;;;15.90;99.90;;;;;;5055378;28;20017;-72
2023/05/10 07:54:46;;;;;;;0.20;0.20;;;16.00;99.90;;;;;;5037942;28;20021;-72
2023/05/10 07:57:14;;;;;;;0.20;0.20;;;16.00;99.90;;;;;;5055759;28;20029;-72
2023/05/10 07:59:40;;;;;;;0.10;0.10;;;16.10;99.90;;;;;;5037755;28;20021;-72
2023/05/10 08:02:06;;;;;;;0.20;0.20;;;16.20;99.90;;;;;;5055112;28;20021;-72
2023/05/10 08:04:31;;;;;;;0.10;0.10;;;16.40;99.90;;;;;;5055750;28;20124;-76
2023/05/10 08:06:57;;;;;;;0.20;0.20;;;16.40;99.90;;;;;;5055580;28;20494;-75
2023/05/10 08:09:23;;;;;;;0.20;0.20;;;16.50;99.90;;;;;;5055127;28;20120;-74
2023/05/10 08:11:50;;;;;;;0.20;0.20;;;16.60;99.90;;;;;;5037634;28;20033;-77
2023/05/10 08:14:15;;;;;;;0.10;0.10;;;16.60;99.90;;;;;;5036507;28;20021;-76
2023/05/10 08:16:41;;;;;;;0.20;0.20;;;16.70;99.90;;;;;;5055275;28;20040;-75
2023/05/10 08:19:06;;;;;;;0.20;0.20;;;16.80;99.90;;;;;;5037224;28;20103;-74
2023/05/10 08:21:32;;;;;;;0.13;0.13;;;16.90;99.90;;;;;;5054791;28;20025;-75
2023/05/10 08:23:57;;;;;;;0.20;0.20;;;16.80;99.90;;;;;;5055162;28;20032;-75
2023/05/10 08:26:23;;;;;;;0.20;0.20;;;16.70;99.90;;;;;;5055297;28;20551;-75
2023/05/10 08:28:48;;;;;;;0.10;0.10;;;16.80;99.90;;;;;;5054963;28;20043;-74
2023/05/10 08:31:15;;;;;;;0.20;0.20;;;16.80;99.90;;;;;;5055113;28;20029;-75
2023/05/10 08:33:40;;;;;;;0.20;0.20;;;16.70;99.90;;;;;;5036476;28;20071;-75
2023/05/10 08:36:06;;;;;;;0.10;0.10;;;16.70;99.90;;;;;;5037410;28;20025;-76
2023/05/10 08:38:32;;;;;;;0.10;0.10;;;16.60;99.90;;;;;;5054331;28;20025;-74
2023/05/10 08:40:58;;;;;;;0.20;0.20;;;16.50;99.90;;;;;;5057858;28;20021;-75
2023/05/10 08:43:28;;;;;;;0.20;0.20;;;16.60;99.90;;;;;;5058610;28;20021;-75
2023/05/10 08:45:55;;;;;;;0.20;0.20;;;16.70;99.90;;;;;;5039849;28;20025;-76
2023/05/10 08:48:22;;;;;;;0.20;0.20;;;16.90;99.90;;;;;;5055863;28;20375;-74
2023/05/10 08:50:52;;;;;;;0.10;0.10;;;17.00;99.90;;;;;;5037604;28;20192;-73
2023/05/10 08:53:19;;;;;;;0.20;0.20;;;17.00;99.90;;;;;;5055518;28;20025;-76
2023/05/10 08:55:45;;;;;;;0.20;0.20;;;17.10;99.90;;;;;;5054444;28;20021;-75
2023/05/10 08:58:11;;;;;;;0.20;0.20;;;17.30;99.90;;;;;;5053926;28;20021;-75
2023/05/10 09:00:37;;;;;;;0.20;0.20;;;17.20;99.90;;;;;;5054305;28;20063;-76
2023/05/10 09:03:04;;;;;;;0.20;0.20;;;17.10;99.90;;;;;;5054332;28;20029;-75
2023/05/10 09:05:30;;;;;;;0.15;0.15;;;17.20;99.90;;;;;;5054167;28;20021;-75
2023/05/10 09:07:55;;;;;;;0.10;0.10;;;17.30;99.90;;;;;;5054293;28;20111;-76
2023/05/10 09:10:21;;;;;;;0.20;0.20;;;17.40;99.90;;;;;;5053641;28;20036;-76
2023/05/10 09:12:48;;;;;;;0.20;0.20;;;17.80;99.90;;;;;;5054033;28;20025;-75
2023/05/10 09:15:19;;;;;;;0.10;0.10;;;17.60;99.90;;;;;;5054231;28;20482;-73
2023/05/10 09:17:45;;;;;;;0.15;0.15;;;17.70;99.90;;;;;;5053986;28;20048;-74
2023/05/10 09:20:10;;;;;;;0.13;0.13;;;17.90;99.90;;;;;;5053731;28;20033;-74
2023/05/10 09:22:37;;;;;;;0.13;0.13;;;17.80;99.90;;;;;;5053399;28;20033;-74
2023/05/10 09:25:09;;;;;;;0.20;0.20;;;17.80;99.90;;;;;;5053637;28;20363;-74
2023/05/10 09:27:36;;;;;;;0.20;0.20;;;17.90;99.90;;;;;;5036059;28;20021;-72
2023/05/10 09:30:02;;;;;;;0.10;0.10;;;17.90;99.90;;;;;;5053992;28;20033;-73
2023/05/10 09:32:47;;;;;;;0.20;0.20;;;17.90;99.90;;;;;;5035956;28;20048;-73
2023/05/10 09:35:15;;;;;;;0.10;0.10;;;18.10;99.90;;;;;;5053098;28;20128;-71
2023/05/10 09:37:48;;;;;;;0.17;0.17;;;18.00;99.90;;;;;;5053790;28;20024;-72
2023/05/10 09:40:19;;;;;;;0.15;0.15;;;18.00;99.90;;;;;;5053946;28;20530;-71
2023/05/10 09:42:55;;;;;;;0.20;0.20;;;17.80;99.90;;;;;;5053416;28;20057;-72
2023/05/10 09:45:21;;;;;;;0.20;0.20;;;18.00;99.90;;;;;;5035370;28;20032;-72
2023/05/10 09:47:47;;;;;;;0.10;0.10;;;18.00;99.90;;;;;;5053675;28;20025;-72
2023/05/10 09:50:12;;;;;;;0.15;0.15;;;18.00;99.90;;;;;;5053836;28;20533;-72
2023/05/10 09:52:59;;;;;;;0.15;0.15;;;17.90;99.90;;;;;;5053608;28;20025;-71
2023/05/10 09:55:35;;;;;;;0.10;0.10;;;17.70;99.90;;;;;;5053794;28;20104;-72
2023/05/10 09:58:01;;;;;;;0.20;0.20;;;17.60;99.90;;;;;;5053115;28;20044;-72
2023/05/10 10:00:34;;;;;;;0.13;0.13;;;17.40;99.90;;;;;;5053384;28;20056;-71
2023/05/10 10:03:00;;;;;;;0.20;0.20;;;17.10;99.90;;;;;;5053465;28;20482;-72
2023/05/10 10:05:32;;;;;;;0.10;0.10;;;17.10;99.90;;;;;;5053923;28;20033;-72
2023/05/10 10:07:58;;;;;;;0.10;0.10;;;17.00;99.90;;;;;;5052824;28;20029;-72
2023/05/10 10:10:25;;;;;;;0.20;0.20;;;16.80;99.90;;;;;;5053164;28;20494;-71
2023/05/10 10:12:51;;;;;;;0.15;0.15;;;16.70;99.90;;;;;;5053270;28;20525;-72
2023/05/10 10:15:17;;;;;;;0.10;0.10;;;16.70;99.90;;;;;;5053202;28;20368;-72
2023/05/10 10:17:43;;;;;;;0.20;0.20;;;16.80;99.90;;;;;;5053155;28;20024;-72
2023/05/10 10:20:09;;;;;;;0.20;0.20;;;16.90;99.90;;;;;;5034703;28;20035;-72
2023/05/10 10:22:36;;;;;;;0.10;0.10;;;16.90;99.90;;;;;;5035244;28;20021;-72
2023/05/10 10:25:02;;;;;;;0.10;0.10;;;16.80;99.90;;;;;;5053377;28;20377;-71
2023/05/10 10:27:51;;;;;;;0.15;0.15;;;16.90;99.90;;;;;;5052822;28;20029;-71
2023/05/10 10:30:35;;;;;;;0.20;0.20;;;16.90;99.90;;;;;;5053057;28;20025;-72
2023/05/10 10:33:44;;;;;;;0.10;0.10;;;16.90;99.90;;;;;;5053127;28;20021;-71
2023/05/10 10:36:12;;;;;;;0.10;0.10;;;16.80;99.90;;;;;;5053198;28;20021;-71
2023/05/10 10:38:47;;;;;;;0.20;0.20;;;16.70;99.90;;;;;;5052310;28;20025;-72
2023/05/10 10:41:36;;;;;;;0.20;0.20;;;16.60;99.90;;;;;;5052544;28;20021;-72
2023/05/10 10:44:33;;;;;;;0.10;0.10;;;16.70;99.90;;;;;;5052946;28;20079;-71
2023/05/10 10:47:28;;;;;;;0.20;0.20;;;16.50;99.90;;;;;;5053181;28;20020;-72
2023/05/10 10:50:00;;;;;;;0.10;0.10;;;16.40;99.90;;;;;;5050113;28;20057;-72
2023/05/10 10:52:33;;;;;;;0.13;0.13;;;16.10;99.90;;;;;;5052696;28;20550;-71
2023/05/10 10:55:01;;;;;;;0.20;0.20;;;16.10;99.90;;;;;;5052847;28;20039;-72
2023/05/10 10:57:29;;;;;;;0.20;0.20;;;16.20;99.90;;;;;;5052808;28;20029;-71
2023/05/10 11:00:17;;;;;;;0.20;0.20;;;16.10;99.90;;;;;;5052664;28;20017;-72
2023/05/10 11:02:45;;;;;;;0.20;0.20;;;15.90;99.90;;;;;;5053267;28;20071;-72
2023/05/10 11:05:35;;;;;;;0.13;0.13;;;15.90;99.90;;;;;;5052172;28;20021;-71
2023/05/10 11:08:11;;;;;;;0.20;0.20;;;16.00;99.90;;;;;;5053457;28;20417;-72
2023/05/10 11:10:36;;;;;;;0.20;0.20;;;16.10;99.90;;;;;;5052680;28;20467;-72
2023/05/10 11:13:05;;;;;;;0.17;0.17;;;16.10;99.90;;;;;;5034736;28;20108;-72
2023/05/10 11:15:38;;;;;;;0.10;0.10;;;16.20;99.90;;;;;;5052092;28;20021;-71
2023/05/10 11:18:18;;;;;;;0.20;0.20;;;16.30;99.90;;;;;;5052631;28;20386;-71
2023/05/10 11:20:46;;;;;;;0.15;0.15;;;16.20;99.90;;;;;;5052530;28;20036;-71
2023/05/10 11:23:15;;;;;;;0.20;0.20;;;15.90;99.90;;;;;;5052566;28;20021;-71
2023/05/10 11:25:43;;;;;;;0.10;0.10;;;16.00;99.90;;;;;;5052495;28;20021;-72
2023/05/10 11:28:08;;;;;;;0.20;0.20;;;16.00;99.90;;;;;;5051994;28;20629;-72
2023/05/10 11:30:34;;;;;;;0.20;0.20;;;15.90;99.90;;;;;;5052504;28;20036;-71
2023/05/10 11:32:59;;;;;;;0.10;0.10;;;15.70;99.90;;;;;;5052469;28;20060;-71
2023/05/10 11:35:27;;;;;;;0.10;0.10;;;15.70;99.90;;;;;;5052598;28;20040;-72
2023/05/10 11:37:53;;;;;;;0.20;0.20;;;15.80;99.90;;;;;;5051961;28;20031;-71
2023/05/10 11:40:21;;;;;;;0.10;0.10;;;15.60;99.90;;;;;;5052078;28;20124;-71
2023/05/10 11:42:46;;;;;;;0.13;0.13;;;15.60;99.90;;;;;;5052540;28;20475;-72
2023/05/10 11:45:12;;;;;;;0.10;0.10;;;15.50;99.90;;;;;;5034534;28;20115;-72
2023/05/10 11:47:39;;;;;;;0.20;0.20;;;15.50;99.90;;;;;;5053030;28;20137;-72
2023/05/10 11:50:05;;;;;;;0.10;0.10;;;15.50;99.90;;;;;;5053059;28;20040;-71
2023/05/10 11:52:37;;;;;;;0.20;0.20;;;15.50;99.90;;;;;;5055696;28;20025;-71
2023/05/10 11:55:03;;;;;;;0.20;0.20;;;15.40;99.90;;;;;;5055880;28;20482;-71
2023/05/10 11:57:28;;;;;;;0.20;0.20;;;15.20;99.90;;;;;;5056022;28;20048;-72
2023/05/10 11:59:55;;;;;;;0.10;0.10;;;15.30;99.90;;;;;;5055987;28;20383;-72
2023/05/10 12:02:20;;;;;;;0.20;0.20;;;15.20;99.90;;;;;;5055181;28;20100;-72
2023/05/10 12:04:46;;;;;;;0.20;0.20;;;15.30;99.90;;;;;;5037790;28;20116;-72
2023/05/10 12:07:12;;;;;;;0.15;0.15;;;15.20;99.90;;;;;;5055604;28;20134;-72
2023/05/10 12:10:02;;;;;;;0.10;0.10;;;15.10;99.90;;;;;;5055435;28;20506;-72
2023/05/10 12:12:34;;;;;;;0.20;0.20;;;15.10;99.90;;;;;;5055094;28;20036;-72
2023/05/10 12:15:00;;;;;;;0.20;0.20;;;15.20;99.90;;;;;;5055561;28;20035;-72
2023/05/10 12:17:29;;;;;;;0.20;0.20;;;15.10;99.90;;;;;;5055414;28;20106;-73
2023/05/10 12:20:12;;;;;;;0.15;0.15;;;15.10;99.90;;;;;;5055366;28;20025;-71
2023/05/10 12:22:37;;;;;;;0.10;0.10;;;15.10;99.90;;;;;;5054848;28;20163;-73
2023/05/10 12:25:03;;;;;;;0.10;0.10;;;15.10;99.90;;;;;;5055317;28;20441;-73
2023/05/10 12:27:32;;;;;;;0.20;0.20;;;14.90;99.90;;;;;;5037359;28;20563;-73
2023/05/10 12:29:59;;;;;;;0.20;0.20;;;15.00;99.90;;;;;;5055166;28;20033;-73
2023/05/10 12:32:41;;;;;;;0.20;0.20;;;14.90;99.90;;;;;;5055364;28;20029;-73
2023/05/10 12:35:07;;;;;;;0.10;0.10;;;14.90;99.90;;;;;;5054608;28;20514;-73
2023/05/10 12:37:38;;;;;;;0.20;0.20;;;14.90;99.90;;;;;;5055025;28;20021;-72
2023/05/10 12:40:06;;;;;;;0.20;0.20;;;14.80;99.90;;;;;;5055989;28;20083;-73
2023/05/10 12:42:32;;;;;;;0.10;0.10;;;14.70;99.90;;;;;;5049667;28;20430;-70
2023/05/10 12:44:58;;;;;;;0.13;0.13;;;14.80;99.90;;;;;;5040895;28;20021;-71
2023/05/10 12:47:23;;;;;;;0.10;0.10;;;15.00;99.90;;;;;;5037951;28;20560;-71
2023/05/10 12:49:49;;;;;;;0.10;0.10;;;15.00;99.90;;;;;;5051561;28;20021;-71
2023/05/10 12:52:14;;;;;;;0.13;0.13;;;15.00;99.90;;;;;;5054691;28;20024;-70